Buoy 41613

sailwx.info

Track history (hours):
 
Tides and Currents Weather Stations Pressure Air Temp Water Temp Dewpoint Dewpoint Depression Visibility Wind Speed Wind Dir Waves Ship Positions

Drifting buoy 41613

Last reported at 2014-Nov-28 06:00 UTC. Time now 2014-Nov-29 08:35 UTC.
Position N 29°07' W 069°25'.

Water temperature 25.8 ° C

Date/timePositionNaut miles runAvg speedWind from/ knotsBaromVisibWave heightAir tempDewpointWater temp
2014-Nov-28 06:00N 29°07' W 069°25'0 0.0 25.8
2014-Nov-28 03:00N 29°07' W 069°25'0 0.0 25.8
2014-Nov-27 23:00N 29°07' W 069°25'0 0.0 25.8
2014-Nov-27 22:00N 29°07' W 069°25'0 0.0 25.8
2014-Nov-27 14:00N 29°07' W 069°25'0 0.0 25.8
2014-Nov-27 11:00N 29°07' W 069°25'0 0.0 25.8
2014-Nov-27 09:00N 29°07' W 069°25'0 0.0 25.8
2014-Nov-27 08:00N 29°07' W 069°25'0 0.0 25.8
2014-Nov-27 06:00N 29°07' W 069°25'0 0.0 25.9
2014-Nov-27 00:00N 29°07' W 069°25'0 0.0 25.9
2014-Nov-26 20:00N 29°07' W 069°25'14 0.8 25.9
2014-Nov-26 02:00N 28°54' W 069°28'0 0.1 26.0
2014-Nov-25 23:00N 28°54' W 069°28'0 0.1 26.0
2014-Nov-25 21:00N 28°54' W 069°28'0 0.0 26.0
2014-Nov-25 17:00N 28°54' W 069°28'0 0.0 26.1
2014-Nov-25 10:00N 28°54' W 069°28'0 0.2 26.0
2014-Nov-25 09:00N 28°54' W 069°28'10 5.1 26.0
2014-Nov-25 07:00N 28°44' W 069°29'0 0.0 26.1
2014-Nov-24 23:00N 28°44' W 069°29'0 0.0 26.1
2014-Nov-24 17:00N 28°44' W 069°29'12 5.8 26.1
2014-Nov-24 15:00N 28°32' W 069°31'0 0.0 26.1
2014-Nov-24 08:00N 28°32' W 069°31'22 3.2 26.1
2014-Nov-24 01:00N 28°10' W 069°31'0 0.0 26.2
2014-Nov-23 22:00N 28°10' W 069°31'0 0.0 26.3
2014-Nov-23 18:00N 28°10' W 069°31'0 0.0 26.4
2014-Nov-23 17:00N 28°10' W 069°31'0 0.0 26.3
2014-Nov-23 11:00N 28°10' W 069°31'0 0.0 26.4
2014-Nov-23 10:00N 28°10' W 069°31'0 0.0 26.4
2014-Nov-23 09:00N 28°10' W 069°31'0 0.0 26.4
2014-Nov-23 05:00N 28°10' W 069°31'0 0.0 26.4
2014-Nov-23 01:00N 28°10' W 069°31'0 0.1 26.5
2014-Nov-22 23:00N 28°10' W 069°31'2512.4 26.5
2014-Nov-22 21:00N 27°47' W 069°22'0 0.0 26.5
2014-Nov-22 20:00N 27°47' W 069°22'0 0.0 26.5
2014-Nov-22 10:00N 27°47' W 069°22'0 0.3 26.7
2014-Nov-22 09:00N 27°47' W 069°22'0 0.0 26.7
2014-Nov-22 05:00N 27°47' W 069°22'0 0.0 26.8
2014-Nov-21 21:00N 27°47' W 069°22'0 0.0 26.9
2014-Nov-21 17:00N 27°47' W 069°22'0 0.0 27.0
2014-Nov-21 11:00N 27°47' W 069°22'2020.1 27.1
2014-Nov-21 10:00N 27°27' W 069°26'2020.1 27.1
2014-Nov-21 09:00N 27°47' W 069°22'2020.1 27.1
2014-Nov-21 08:00N 27°27' W 069°26'0 0.0 27.1
2014-Nov-20 22:00N 27°27' W 069°26'0 0.0 27.2
2014-Nov-20 17:00N 27°27' W 069°26'0 0.0 27.1
2014-Nov-20 10:00N 27°27' W 069°26'0 0.0 26.8
2014-Nov-20 08:00N 27°27' W 069°26'2 0.3 26.9
2014-Nov-20 02:00N 27°25' W 069°28'13 2.2 26.9
2014-Nov-19 20:00N 27°19' W 069°40'0 0.0 27.0
2014-Nov-19 18:00N 27°19' W 069°40'0 0.0 27.0
2014-Nov-19 17:00N 27°19' W 069°40'0 0.0 26.9
2014-Nov-19 15:00N 27°19' W 069°40'0 0.0 27.1
2014-Nov-19 11:00N 27°19' W 069°40'0 0.0 26.9
2014-Nov-19 01:00N 27°19' W 069°40'0 0.1 27.0
2014-Nov-18 22:00N 27°19' W 069°40'0 0.1 27.1
2014-Nov-18 20:00N 27°19' W 069°40'20 1.4 27.1
2014-Nov-18 06:00N 27°09' W 069°59'   26.8
Track history (hours):
 
Tides and Currents Weather Stations Pressure Air Temp Water Temp Dewpoint Dewpoint Depression Visibility Wind Speed Wind Dir Waves Ship Positions

Drifting buoy 41613

Last reported at 2014-Nov-28 06:00 UTC. Time now 2014-Nov-29 08:35 UTC.
Position N 29°07' W 069°25'.

Water temperature 25.8 ° C

Date/timePositionNaut miles runAvg speedWind from/ knotsBaromVisibWave heightAir tempDewpointWater temp
2014-Nov-28 06:00N 29°07' W 069°25'0 0.0 25.8
2014-Nov-28 03:00N 29°07' W 069°25'0 0.0 25.8
2014-Nov-27 23:00N 29°07' W 069°25'0 0.0 25.8
2014-Nov-27 22:00N 29°07' W 069°25'0 0.0 25.8
2014-Nov-27 14:00N 29°07' W 069°25'0 0.0 25.8
2014-Nov-27 11:00N 29°07' W 069°25'0 0.0 25.8
2014-Nov-27 09:00N 29°07' W 069°25'0 0.0 25.8
2014-Nov-27 08:00N 29°07' W 069°25'0 0.0 25.8
2014-Nov-27 06:00N 29°07' W 069°25'0 0.0 25.9
2014-Nov-27 00:00N 29°07' W 069°25'0 0.0 25.9
2014-Nov-26 20:00N 29°07' W 069°25'14 0.8 25.9
2014-Nov-26 02:00N 28°54' W 069°28'0 0.1 26.0
2014-Nov-25 23:00N 28°54' W 069°28'0 0.1 26.0
2014-Nov-25 21:00N 28°54' W 069°28'0 0.0 26.0
2014-Nov-25 17:00N 28°54' W 069°28'0 0.0 26.1
2014-Nov-25 10:00N 28°54' W 069°28'0 0.2 26.0
2014-Nov-25 09:00N 28°54' W 069°28'10 5.1 26.0
2014-Nov-25 07:00N 28°44' W 069°29'0 0.0 26.1
2014-Nov-24 23:00N 28°44' W 069°29'0 0.0 26.1
2014-Nov-24 17:00N 28°44' W 069°29'12 5.8 26.1
2014-Nov-24 15:00N 28°32' W 069°31'0 0.0 26.1
2014-Nov-24 08:00N 28°32' W 069°31'22 3.2 26.1
2014-Nov-24 01:00N 28°10' W 069°31'0 0.0 26.2
2014-Nov-23 22:00N 28°10' W 069°31'0 0.0 26.3
2014-Nov-23 18:00N 28°10' W 069°31'0 0.0 26.4
2014-Nov-23 17:00N 28°10' W 069°31'0 0.0 26.3
2014-Nov-23 11:00N 28°10' W 069°31'0 0.0 26.4
2014-Nov-23 10:00N 28°10' W 069°31'0 0.0 26.4
2014-Nov-23 09:00N 28°10' W 069°31'0 0.0 26.4
2014-Nov-23 05:00N 28°10' W 069°31'0 0.0 26.4
2014-Nov-23 01:00N 28°10' W 069°31'0 0.1 26.5
2014-Nov-22 23:00N 28°10' W 069°31'2512.4 26.5
2014-Nov-22 21:00N 27°47' W 069°22'0 0.0 26.5
2014-Nov-22 20:00N 27°47' W 069°22'0 0.0 26.5
2014-Nov-22 10:00N 27°47' W 069°22'0 0.3 26.7
2014-Nov-22 09:00N 27°47' W 069°22'0 0.0 26.7
2014-Nov-22 05:00N 27°47' W 069°22'0 0.0 26.8
2014-Nov-21 21:00N 27°47' W 069°22'0 0.0 26.9
2014-Nov-21 17:00N 27°47' W 069°22'0 0.0 27.0
2014-Nov-21 11:00N 27°47' W 069°22'2020.1 27.1
2014-Nov-21 10:00N 27°27' W 069°26'2020.1 27.1
2014-Nov-21 09:00N 27°47' W 069°22'2020.1 27.1
2014-Nov-21 08:00N 27°27' W 069°26'0 0.0 27.1
2014-Nov-20 22:00N 27°27' W 069°26'0 0.0 27.2
2014-Nov-20 17:00N 27°27' W 069°26'0 0.0 27.1
2014-Nov-20 10:00N 27°27' W 069°26'0 0.0 26.8
2014-Nov-20 08:00N 27°27' W 069°26'2 0.3 26.9
2014-Nov-20 02:00N 27°25' W 069°28'13 2.2 26.9
2014-Nov-19 20:00N 27°19' W 069°40'0 0.0 27.0
2014-Nov-19 18:00N 27°19' W 069°40'0 0.0 27.0
2014-Nov-19 17:00N 27°19' W 069°40'0 0.0 26.9
2014-Nov-19 15:00N 27°19' W 069°40'0 0.0 27.1
2014-Nov-19 11:00N 27°19' W 069°40'0 0.0 26.9
2014-Nov-19 01:00N 27°19' W 069°40'0 0.1 27.0
2014-Nov-18 22:00N 27°19' W 069°40'0 0.1 27.1
2014-Nov-18 20:00N 27°19' W 069°40'20 1.4 27.1
2014-Nov-18 06:00N 27°09' W 069°59'   26.8

Dump ship's entire track history